createdAt,value
2019-02-22T00:00:47.999Z,5.74
2019-02-22T00:03:14.659Z,5.75
2019-02-22T00:05:41.249Z,5.74
2019-02-22T00:08:07.880Z,5.75
2019-02-22T00:10:34.564Z,5.78
2019-02-22T00:13:01.173Z,5.78
2019-02-22T00:15:27.764Z,5.78
2019-02-22T00:17:54.375Z,5.77
2019-02-22T00:20:20.991Z,5.75
2019-02-22T00:22:47.671Z,5.76
2019-02-22T00:25:14.258Z,5.79
2019-02-22T00:27:40.852Z,5.81
2019-02-22T00:30:07.472Z,5.81
2019-02-22T00:32:34.172Z,5.81
2019-02-22T00:35:00.854Z,5.81
2019-02-22T00:37:27.634Z,5.76
2019-02-22T00:39:54.299Z,5.71
2019-02-22T00:42:20.996Z,5.64
2019-02-22T00:44:47.608Z,5.52
2019-02-22T00:47:14.226Z,5.44
2019-02-22T00:49:40.903Z,5.37
2019-02-22T00:52:07.504Z,5.31
2019-02-22T00:54:34.100Z,5.27
2019-02-22T00:57:00.697Z,5.22
2019-02-22T00:59:27.297Z,5.21
2019-02-22T01:01:53.932Z,5.23
2019-02-22T01:04:20.542Z,5.25
2019-02-22T01:06:47.244Z,5.24
2019-02-22T01:09:13.859Z,5.26
2019-02-22T01:11:40.500Z,5.29
2019-02-22T01:14:07.136Z,5.34
2019-02-22T01:16:33.732Z,5.36
2019-02-22T01:19:00.338Z,5.37
2019-02-22T01:21:26.936Z,5.35
2019-02-22T01:23:53.552Z,5.34
2019-02-22T01:26:20.152Z,5.34
2019-02-22T01:28:46.762Z,5.33
2019-02-22T01:31:13.359Z,5.36
2019-02-22T01:33:39.985Z,5.37
2019-02-22T01:36:06.675Z,5.37
2019-02-22T01:38:33.286Z,5.36
2019-02-22T01:40:59.965Z,5.33
2019-02-22T01:43:26.658Z,5.31
2019-02-22T01:45:53.286Z,5.31
2019-02-22T01:48:19.903Z,5.28
2019-02-22T01:50:46.557Z,5.23
2019-02-22T01:53:13.260Z,5.20
2019-02-22T01:55:39.989Z,5.19
2019-02-22T01:58:06.702Z,5.14
2019-02-22T02:00:33.437Z,5.11
2019-02-22T02:03:00.046Z,5.08
2019-02-22T02:05:26.773Z,5.07
2019-02-22T02:07:53.386Z,5.06
2019-02-22T02:10:20.025Z,5.08
2019-02-22T02:12:46.781Z,5.13
2019-02-22T02:15:13.449Z,5.18
2019-02-22T02:17:40.159Z,5.18
2019-02-22T02:20:07.069Z,5.17
2019-02-22T02:22:33.755Z,5.18
2019-02-22T02:25:00.463Z,5.18
2019-02-22T02:27:27.079Z,5.16
2019-02-22T02:29:53.722Z,5.11
2019-02-22T02:32:20.420Z,5.08
2019-02-22T02:34:47.055Z,5.06
2019-02-22T02:37:13.768Z,5.08
2019-02-22T02:39:40.494Z,5.08
2019-02-22T02:42:07.203Z,5.09
2019-02-22T02:44:33.826Z,5.10
2019-02-22T02:47:00.444Z,5.09
2019-02-22T02:49:27.075Z,5.09
2019-02-22T02:51:54.214Z,5.07
2019-02-22T02:54:20.912Z,5.07
2019-02-22T02:56:47.531Z,5.08
2019-02-22T02:59:14.154Z,5.07
2019-02-22T03:01:40.871Z,5.07
2019-02-22T03:04:07.511Z,5.11
2019-02-22T03:06:42.336Z,5.15
2019-02-22T03:09:09.677Z,5.16
2019-02-22T03:11:36.385Z,5.19
2019-02-22T03:14:03.001Z,5.21
2019-02-22T03:16:29.712Z,5.21
2019-02-22T03:18:56.416Z,5.21
2019-02-22T03:21:23.144Z,5.21
2019-02-22T03:23:49.751Z,5.25
2019-02-22T03:26:16.459Z,5.28
2019-02-22T03:28:43.070Z,5.28
2019-02-22T03:31:09.786Z,5.30
2019-02-22T03:33:36.417Z,5.30
2019-02-22T03:36:03.119Z,5.26
2019-02-22T03:38:29.824Z,5.23
2019-02-22T03:40:56.552Z,5.21
2019-02-22T03:43:23.171Z,5.22
2019-02-22T03:45:49.926Z,5.25
2019-02-22T03:48:16.616Z,5.27
2019-02-22T03:50:43.336Z,5.26
2019-02-22T03:53:19.883Z,5.25
2019-02-22T03:55:46.500Z,5.23
2019-02-22T03:58:13.137Z,5.19
2019-02-22T04:00:39.872Z,5.16
2019-02-22T04:03:06.516Z,5.13
2019-02-22T04:05:33.229Z,5.13
2019-02-22T04:07:59.974Z,5.13
2019-02-22T04:10:26.671Z,5.13
2019-02-22T04:12:53.294Z,5.14
2019-02-22T04:15:20.013Z,5.13
2019-02-22T04:17:46.719Z,5.15
2019-02-22T04:20:13.337Z,5.18
2019-02-22T04:22:39.963Z,5.17
2019-02-22T04:25:06.561Z,5.15
2019-02-22T04:27:33.177Z,5.12
2019-02-22T04:29:59.790Z,5.11
2019-02-22T04:32:26.404Z,5.17
2019-02-22T04:34:53.017Z,5.23
2019-02-22T04:37:19.665Z,5.27
2019-02-22T04:39:46.380Z,5.29
2019-02-22T04:42:13.096Z,5.35
2019-02-22T04:44:39.717Z,5.37
2019-02-22T04:47:06.378Z,5.41
2019-02-22T04:49:32.975Z,5.43
2019-02-22T04:51:59.692Z,5.50
2019-02-22T04:54:26.302Z,5.52
2019-02-22T04:56:52.934Z,5.58
2019-02-22T04:59:19.623Z,5.64
2019-02-22T05:01:46.343Z,5.64
2019-02-22T05:04:12.963Z,5.67
2019-02-22T05:06:39.679Z,5.68
2019-02-22T05:09:06.323Z,5.70
2019-02-22T05:11:33.033Z,5.71
2019-02-22T05:13:59.748Z,5.74
2019-02-22T05:16:26.356Z,5.81
2019-02-22T05:18:52.976Z,5.83
2019-02-22T05:21:19.606Z,5.86
2019-02-22T05:23:46.440Z,5.87
2019-02-22T05:26:13.140Z,5.89
2019-02-22T05:28:39.797Z,5.92
2019-02-22T05:31:06.460Z,5.98
2019-02-22T05:33:33.164Z,6.00
2019-02-22T05:35:59.800Z,6.08
2019-02-22T05:38:26.510Z,6.08
2019-02-22T05:40:53.259Z,6.04
2019-02-22T05:43:19.972Z,6.02
2019-02-22T05:45:46.623Z,6.02
2019-02-22T05:48:13.329Z,6.00
2019-02-22T05:50:40.053Z,6.01
2019-02-22T05:53:06.783Z,6.00
2019-02-22T05:55:33.522Z,6.03
2019-02-22T05:58:00.122Z,6.04
2019-02-22T06:00:26.762Z,6.04
2019-02-22T06:02:53.454Z,6.02
2019-02-22T06:05:20.092Z,6.00
2019-02-22T06:07:46.810Z,6.02
2019-02-22T06:10:13.426Z,6.02
2019-02-22T06:12:40.052Z,6.01
2019-02-22T06:15:06.653Z,5.98
2019-02-22T06:17:33.299Z,5.97
2019-02-22T06:20:00.004Z,5.97
2019-02-22T06:22:29.892Z,5.95
2019-02-22T06:24:55.189Z,5.94
2019-02-22T06:27:21.927Z,5.94
2019-02-22T06:29:49.708Z,5.93
2019-02-22T06:32:16.674Z,5.93
2019-02-22T06:34:43.561Z,5.95
2019-02-22T06:37:11.688Z,5.93
2019-02-22T06:39:38.488Z,5.94
2019-02-22T06:42:05.164Z,5.97
2019-02-22T06:44:31.883Z,5.97
2019-02-22T06:46:58.528Z,5.96
2019-02-22T06:49:25.169Z,6.00
2019-02-22T06:51:51.881Z,6.02
2019-02-22T06:54:18.537Z,6.03
2019-02-22T06:56:45.243Z,6.03
2019-02-22T06:59:11.951Z,6.04
2019-02-22T07:01:38.563Z,6.03
2019-02-22T07:04:05.189Z,6.00
2019-02-22T07:06:31.808Z,6.03
2019-02-22T07:08:58.441Z,6.05
2019-02-22T07:11:40.445Z,6.05
2019-02-22T07:14:07.141Z,6.08
2019-02-22T07:16:33.755Z,6.08
2019-02-22T07:19:00.471Z,6.08
2019-02-22T07:21:38.869Z,6.10
2019-02-22T07:23:55.707Z,6.14
2019-02-22T07:26:22.325Z,6.19
2019-02-22T07:28:49.051Z,6.20
2019-02-22T07:31:15.774Z,6.22
2019-02-22T07:33:42.888Z,6.24
2019-02-22T07:36:09.633Z,6.26
2019-02-22T07:38:36.239Z,6.24
2019-02-22T07:41:02.849Z,6.30
2019-02-22T07:43:29.499Z,6.30
2019-02-22T07:45:56.254Z,6.35
2019-02-22T07:48:22.988Z,6.42
2019-02-22T07:50:57.884Z,6.46
2019-02-22T07:53:18.206Z,6.46
2019-02-22T07:55:44.817Z,6.55
2019-02-22T07:58:11.538Z,6.52
2019-02-22T08:00:38.179Z,6.51
2019-02-22T08:03:04.802Z,6.47
2019-02-22T08:05:31.539Z,6.45
2019-02-22T08:07:58.340Z,6.44
2019-02-22T08:10:26.303Z,6.46
2019-02-22T08:12:53.090Z,6.48
2019-02-22T08:15:19.794Z,6.47
2019-02-22T08:17:46.399Z,6.47
2019-02-22T08:20:13.027Z,6.50
2019-02-22T08:22:39.732Z,6.51
2019-02-22T08:25:06.468Z,6.51
2019-02-22T08:27:33.217Z,6.50
2019-02-22T08:29:59.926Z,6.49
2019-02-22T08:32:26.596Z,6.46
2019-02-22T08:34:53.319Z,6.46
2019-02-22T08:37:20.023Z,6.47
2019-02-22T08:39:57.446Z,6.49
2019-02-22T08:42:15.243Z,6.51
2019-02-22T08:44:41.983Z,6.52
2019-02-22T08:47:08.671Z,6.53
2019-02-22T08:49:35.398Z,6.57
2019-02-22T08:52:02.032Z,6.59
2019-02-22T08:54:28.771Z,6.61
2019-02-22T08:56:55.413Z,6.63
2019-02-22T08:59:22.127Z,6.64
2019-02-22T09:01:48.770Z,6.66
2019-02-22T09:04:15.464Z,6.69
2019-02-22T09:06:42.188Z,6.87
2019-02-22T09:09:08.934Z,7.00
2019-02-22T09:11:35.563Z,7.13
2019-02-22T09:14:02.183Z,7.17
2019-02-22T09:16:28.885Z,7.20
2019-02-22T09:18:55.593Z,7.16
2019-02-22T09:21:22.257Z,7.13
2019-02-22T09:23:48.967Z,7.11
2019-02-22T09:26:15.697Z,7.09
2019-02-22T09:28:42.302Z,7.10
2019-02-22T09:31:08.923Z,7.09
2019-02-22T09:33:35.607Z,7.07
2019-02-22T09:36:02.262Z,7.07
2019-02-22T09:38:28.966Z,7.09
2019-02-22T09:40:55.594Z,7.13
2019-02-22T09:43:22.193Z,7.14
2019-02-22T09:45:48.839Z,7.16
2019-02-22T09:48:15.447Z,7.16
2019-02-22T09:50:42.182Z,7.16
2019-02-22T09:53:08.807Z,7.16
2019-02-22T09:55:35.434Z,7.15
2019-02-22T09:58:02.170Z,7.15
2019-02-22T10:00:28.900Z,7.14
2019-02-22T10:02:55.575Z,7.14
2019-02-22T10:05:22.312Z,7.10
2019-02-22T10:07:48.954Z,7.09
2019-02-22T10:10:15.679Z,7.08
2019-02-22T10:12:42.312Z,7.08
2019-02-22T10:15:09.144Z,7.07
2019-02-22T10:17:35.823Z,7.08
2019-02-22T10:20:02.524Z,7.08
2019-02-22T10:22:29.231Z,7.09
2019-02-22T10:24:55.985Z,7.11
2019-02-22T10:27:22.710Z,7.14
2019-02-22T10:29:49.439Z,7.15
2019-02-22T10:32:16.170Z,7.20
2019-02-22T10:34:42.822Z,7.24
2019-02-22T10:37:09.560Z,7.26
2019-02-22T10:39:36.172Z,7.29
2019-02-22T10:42:02.833Z,7.30
2019-02-22T10:44:29.575Z,7.32
2019-02-22T10:46:56.319Z,7.33
2019-02-22T10:49:23.047Z,7.34
2019-02-22T10:51:49.672Z,7.34
2019-02-22T10:54:16.300Z,7.35
2019-02-22T10:56:43.024Z,7.38
2019-02-22T10:59:09.649Z,7.40
2019-02-22T11:01:36.373Z,7.39
2019-02-22T11:04:03.000Z,7.37
2019-02-22T11:06:29.683Z,7.32
2019-02-22T11:08:56.279Z,7.21
2019-02-22T11:11:22.896Z,7.15
2019-02-22T11:13:49.504Z,7.12
2019-02-22T11:16:16.134Z,7.13
2019-02-22T11:18:42.732Z,7.15
2019-02-22T11:21:09.354Z,7.19
2019-02-22T11:23:35.961Z,7.29
2019-02-22T11:26:02.590Z,7.40
2019-02-22T11:28:29.210Z,7.51
2019-02-22T11:30:55.828Z,7.60
2019-02-22T11:33:22.371Z,7.62
2019-02-22T11:35:49.027Z,7.64
2019-02-22T11:38:15.627Z,7.61
2019-02-22T11:40:42.352Z,7.62
2019-02-22T11:43:09.076Z,7.62
2019-02-22T11:45:35.789Z,7.60
2019-02-22T11:48:09.209Z,7.61
2019-02-22T11:50:30.925Z,7.59
2019-02-22T11:52:57.633Z,7.54
2019-02-22T11:55:24.233Z,7.52
2019-02-22T11:57:51.059Z,7.51
2019-02-22T12:00:19.490Z,7.49
2019-02-22T12:02:46.233Z,7.51
2019-02-22T12:05:12.817Z,7.53
2019-02-22T12:07:39.423Z,7.56
2019-02-22T12:10:06.057Z,7.60
2019-02-22T12:12:32.653Z,7.60
2019-02-22T12:14:59.356Z,7.61
2019-02-22T12:17:25.989Z,7.61
2019-02-22T12:19:52.673Z,7.62
2019-02-22T12:22:19.272Z,7.64
2019-02-22T12:24:45.904Z,7.67
2019-02-22T12:27:14.200Z,7.71
2019-02-22T12:29:41.026Z,7.73
2019-02-22T12:32:07.635Z,7.77
2019-02-22T12:34:34.260Z,7.78
2019-02-22T12:37:00.964Z,7.82
2019-02-22T12:39:27.572Z,7.88
2019-02-22T12:41:54.192Z,7.95
2019-02-22T12:44:20.918Z,8.03
2019-02-22T12:46:47.522Z,8.08
2019-02-22T12:49:14.112Z,8.21
2019-02-22T12:51:40.736Z,8.30
2019-02-22T12:54:07.368Z,8.43
2019-02-22T12:59:02.538Z,8.77
2019-02-22T13:01:29.137Z,8.87
2019-02-22T13:03:55.762Z,8.91
2019-02-22T13:06:22.461Z,8.95
2019-02-22T13:08:49.080Z,8.88
2019-02-22T13:11:15.717Z,8.92
2019-02-22T13:13:42.332Z,8.90
2019-02-22T13:16:08.951Z,8.97
2019-02-22T13:18:35.566Z,9.23
2019-02-22T13:21:02.175Z,9.57
2019-02-22T13:23:28.877Z,9.61
2019-02-22T13:25:55.485Z,9.78
2019-02-22T13:28:22.144Z,9.80
2019-02-22T13:30:48.828Z,9.82
2019-02-22T13:33:15.440Z,9.67
2019-02-22T13:35:42.103Z,9.58
2019-02-22T13:38:08.805Z,9.59
2019-02-22T13:40:35.427Z,9.67
2019-02-22T13:43:02.127Z,9.77
2019-02-22T13:45:28.738Z,9.84
2019-02-22T13:47:55.649Z,9.93
2019-02-22T13:50:22.416Z,10.30
2019-02-22T13:52:49.167Z,10.38
2019-02-22T13:55:16.317Z,10.22
2019-02-22T13:57:43.057Z,10.31
2019-02-22T14:00:11.393Z,10.67
2019-02-22T14:02:38.123Z,10.95
2019-02-22T14:05:04.801Z,11.18
2019-02-22T14:07:31.459Z,11.35
2019-02-22T14:09:58.171Z,11.36
2019-02-22T14:12:25.054Z,11.23
2019-02-22T14:14:51.679Z,10.90
2019-02-22T14:17:18.316Z,10.70
2019-02-22T14:19:44.933Z,10.59
2019-02-22T14:22:11.561Z,10.52
2019-02-22T14:24:38.270Z,10.58
2019-02-22T14:27:04.987Z,10.69
2019-02-22T14:29:31.639Z,10.65
2019-02-22T14:31:58.379Z,10.47
2019-02-22T14:34:25.108Z,10.43
2019-02-22T14:36:51.914Z,10.30
2019-02-22T14:39:18.639Z,10.32
2019-02-22T14:41:45.361Z,10.24
2019-02-22T14:44:12.338Z,10.10
2019-02-22T14:46:38.985Z,9.98
2019-02-22T14:49:05.628Z,9.89
2019-02-22T14:51:32.353Z,9.74
2019-02-22T14:53:58.973Z,9.60
2019-02-22T14:56:25.691Z,9.49
2019-02-22T14:58:52.337Z,9.42
2019-02-22T15:01:19.086Z,9.42
2019-02-22T15:03:45.809Z,9.44
2019-02-22T15:06:12.573Z,9.41
2019-02-22T15:08:39.328Z,9.42
2019-02-22T15:11:06.026Z,9.41
2019-02-22T15:13:32.682Z,9.28
2019-02-22T15:16:21.755Z,9.02
2019-02-22T15:18:48.402Z,8.79
2019-02-22T15:21:15.237Z,8.47
2019-02-22T15:23:41.966Z,8.26
2019-02-22T15:26:08.636Z,8.12
2019-02-22T15:28:35.575Z,8.09
2019-02-22T15:31:02.596Z,8.03
2019-02-22T15:33:29.270Z,7.96
2019-02-22T15:35:55.981Z,7.88
2019-02-22T15:38:22.651Z,7.81
2019-02-22T15:40:49.468Z,7.76
2019-02-22T15:43:16.124Z,7.60
2019-02-22T15:45:42.882Z,7.46
2019-02-22T15:48:09.620Z,7.41
2019-02-22T15:50:36.379Z,7.36
2019-02-22T15:53:03.097Z,7.29
2019-02-22T15:55:29.768Z,7.25
2019-02-22T15:57:56.467Z,7.21
2019-02-22T16:00:24.036Z,7.17
2019-02-22T16:02:52.589Z,7.14
2019-02-22T16:05:30.779Z,7.12
2019-02-22T16:07:57.559Z,7.10
2019-02-22T16:10:24.318Z,7.10
2019-02-22T16:12:51.055Z,7.10
2019-02-22T16:15:18.026Z,7.08
2019-02-22T16:17:44.794Z,7.07
2019-02-22T16:20:11.506Z,7.01
2019-02-22T16:22:38.158Z,6.98
2019-02-22T16:25:04.983Z,6.94
2019-02-22T16:27:31.729Z,6.88
2019-02-22T16:29:59.308Z,6.87
2019-02-22T16:32:27.359Z,6.81
2019-02-22T16:34:54.033Z,6.76
2019-02-22T16:37:20.801Z,6.74
2019-02-22T16:39:47.618Z,6.70
2019-02-22T16:42:14.350Z,6.66
2019-02-22T16:44:41.317Z,6.60
2019-02-22T16:47:08.091Z,6.58
2019-02-22T16:49:35.115Z,6.56
2019-02-22T16:52:01.856Z,6.52
2019-02-22T16:54:28.523Z,6.48
2019-02-22T16:56:55.247Z,6.46
2019-02-22T16:59:22.190Z,6.44
2019-02-22T17:01:48.846Z,6.42
2019-02-22T17:04:15.519Z,6.41
2019-02-22T17:06:44.160Z,6.39
2019-02-22T17:09:10.813Z,6.38
2019-02-22T17:11:37.525Z,6.37
2019-02-22T17:14:04.258Z,6.38
2019-02-22T17:16:30.931Z,6.38
2019-02-22T17:18:57.667Z,6.37
2019-02-22T17:21:24.395Z,6.36
2019-02-22T17:23:51.130Z,6.36
2019-02-22T17:26:17.901Z,6.33
2019-02-22T17:28:44.661Z,6.32
2019-02-22T17:31:11.403Z,6.27
2019-02-22T17:33:38.076Z,6.27
2019-02-22T17:36:04.882Z,6.27
2019-02-22T17:38:31.942Z,6.28
2019-02-22T17:40:58.588Z,6.27
2019-02-22T17:43:25.368Z,6.24
2019-02-22T17:45:52.094Z,6.23
2019-02-22T17:48:19.271Z,6.22
2019-02-22T17:50:45.976Z,6.21
2019-02-22T17:53:12.757Z,6.20
2019-02-22T17:55:39.483Z,6.18
2019-02-22T17:58:06.271Z,6.16
2019-02-22T18:00:33.021Z,6.14
2019-02-22T18:02:59.785Z,6.10
2019-02-22T18:05:26.518Z,6.10
2019-02-22T18:07:53.558Z,6.08
2019-02-22T18:10:20.214Z,6.07
2019-02-22T18:12:47.072Z,6.06
2019-02-22T18:15:13.863Z,6.06
2019-02-22T18:17:40.921Z,6.04
2019-02-22T18:20:07.735Z,6.08
2019-02-22T18:22:34.799Z,6.19
2019-02-22T18:25:01.531Z,6.36
2019-02-22T18:27:28.306Z,6.56
2019-02-22T18:29:55.312Z,6.75
2019-02-22T18:32:22.082Z,6.78
2019-02-22T18:34:48.883Z,6.65
2019-02-22T18:37:15.659Z,6.52
2019-02-22T18:39:42.445Z,6.41
2019-02-22T18:42:09.223Z,6.30
2019-02-22T18:44:36.024Z,6.21
2019-02-22T18:47:02.775Z,6.14
2019-02-22T18:49:30.886Z,6.08
2019-02-22T18:51:57.600Z,6.03
2019-02-22T18:54:24.268Z,5.99
2019-02-22T18:56:51.034Z,5.95
2019-02-22T18:59:17.844Z,5.89
2019-02-22T19:01:44.610Z,5.84
2019-02-22T19:04:11.399Z,5.80
2019-02-22T19:06:38.175Z,5.80
2019-02-22T19:09:05.511Z,5.81
2019-02-22T19:11:32.307Z,5.81
2019-02-22T19:13:59.329Z,5.81
2019-02-22T19:16:26.121Z,5.83
2019-02-22T19:18:52.891Z,5.89
2019-02-22T19:21:19.675Z,6.04
2019-02-22T19:23:48.478Z,6.11
2019-02-22T19:26:15.300Z,6.18
2019-02-22T19:28:42.162Z,6.29
2019-02-22T19:31:08.978Z,6.27
2019-02-22T19:33:36.914Z,6.16
2019-02-22T19:36:03.944Z,6.08
2019-02-22T19:38:30.764Z,6.01
2019-02-22T19:40:57.606Z,5.95
2019-02-22T19:43:24.418Z,5.87
2019-02-22T19:45:51.286Z,5.81
2019-02-22T19:48:20.055Z,5.77
2019-02-22T19:50:46.717Z,5.72
2019-02-22T19:53:13.563Z,5.68
2019-02-22T19:55:41.754Z,5.64
2019-02-22T19:58:08.611Z,5.61
2019-02-22T20:00:35.412Z,5.56
2019-02-22T20:03:02.274Z,5.55
2019-02-22T20:05:29.086Z,5.53
2019-02-22T20:07:56.195Z,5.52
2019-02-22T20:10:23.026Z,5.47
2019-02-22T20:12:49.815Z,5.42
2019-02-22T20:15:19.108Z,5.36
2019-02-22T20:17:53.738Z,5.31
2019-02-22T20:20:14.915Z,5.25
2019-02-22T20:22:45.802Z,5.18
2019-02-22T20:25:12.588Z,5.08
2019-02-22T20:27:39.380Z,4.99
2019-02-22T20:30:07.225Z,4.93
2019-02-22T20:32:34.027Z,4.86
2019-02-22T20:35:01.873Z,4.82
2019-02-22T20:37:29.191Z,4.78
2019-02-22T20:39:57.352Z,4.74
2019-02-22T20:42:24.220Z,4.73
2019-02-22T20:44:51.085Z,4.72
2019-02-22T20:47:17.887Z,4.69
2019-02-22T20:49:45.550Z,4.64
2019-02-22T20:52:12.736Z,4.56
2019-02-22T20:54:39.565Z,4.48
2019-02-22T20:57:06.378Z,4.40
2019-02-22T20:59:33.217Z,4.31
2019-02-22T21:02:00.021Z,4.25
2019-02-22T21:04:26.808Z,4.20
2019-02-22T21:06:53.631Z,4.15
2019-02-22T21:09:22.029Z,4.12
2019-02-22T21:11:48.822Z,4.09
2019-02-22T21:14:18.269Z,4.05
2019-02-22T21:16:45.349Z,4.04
2019-02-22T21:19:12.512Z,4.02
2019-02-22T21:21:39.303Z,4.00
2019-02-22T21:24:06.098Z,4.00
2019-02-22T21:26:33.092Z,3.98
2019-02-22T21:28:59.881Z,3.97
2019-02-22T21:31:26.669Z,3.95
2019-02-22T21:33:53.448Z,3.95
2019-02-22T21:36:20.566Z,3.93
2019-02-22T21:38:47.315Z,3.88
2019-02-22T21:41:16.266Z,3.87
2019-02-22T21:43:42.701Z,3.84
2019-02-22T21:46:10.470Z,3.80
2019-02-22T21:48:37.204Z,3.73
2019-02-22T21:51:03.884Z,3.68
2019-02-22T21:53:30.645Z,3.64
2019-02-22T21:55:57.397Z,3.58
2019-02-22T21:58:24.043Z,3.53
2019-02-22T22:00:50.785Z,3.46
2019-02-22T22:03:17.479Z,3.40
2019-02-22T22:05:44.554Z,3.35
2019-02-22T22:08:11.283Z,3.30
2019-02-22T22:10:37.946Z,3.24
2019-02-22T22:13:04.743Z,3.17
2019-02-22T22:15:31.463Z,3.10
2019-02-22T22:17:58.222Z,3.04
2019-02-22T22:20:25.484Z,3.00
2019-02-22T22:22:52.138Z,2.98
2019-02-22T22:25:18.890Z,2.96
2019-02-22T22:27:45.649Z,2.94
2019-02-22T22:30:12.730Z,2.91
2019-02-22T22:32:39.463Z,2.90
2019-02-22T22:35:06.446Z,2.89
2019-02-22T22:37:33.201Z,2.88
2019-02-22T22:39:59.952Z,2.86
2019-02-22T22:42:26.689Z,2.84
2019-02-22T22:44:53.452Z,2.84
2019-02-22T22:47:20.097Z,2.81
2019-02-22T22:49:46.838Z,2.79
2019-02-22T22:52:13.567Z,2.76
2019-02-22T22:54:40.278Z,2.74
2019-02-22T22:57:06.885Z,2.72
2019-02-22T22:59:33.520Z,2.73
2019-02-22T23:02:00.123Z,2.72
2019-02-22T23:04:26.749Z,2.68
2019-02-22T23:06:53.458Z,2.65
2019-02-22T23:09:22.480Z,2.60
2019-02-22T23:11:50.171Z,2.54
2019-02-22T23:14:16.805Z,2.49
2019-02-22T23:16:43.423Z,2.45
2019-02-22T23:19:10.122Z,2.41
2019-02-22T23:21:36.743Z,2.37
2019-02-22T23:24:03.329Z,2.33
2019-02-22T23:26:29.925Z,2.32
2019-02-22T23:28:56.541Z,2.29
2019-02-22T23:31:23.137Z,2.27
2019-02-22T23:33:49.733Z,2.27
2019-02-22T23:36:16.367Z,2.27
2019-02-22T23:38:43.085Z,2.25
2019-02-22T23:41:09.724Z,2.22
2019-02-22T23:43:36.416Z,2.19
2019-02-22T23:46:03.059Z,2.15
2019-02-22T23:48:29.692Z,2.11
2019-02-22T23:50:56.320Z,2.07
2019-02-22T23:53:22.914Z,2.05
2019-02-22T23:55:49.605Z,2.02
2019-02-22T23:58:16.294Z,1.96
